METAR Data
IDs: Format: Raw Decoded Include TAF

Data at: 0848 UTC 07 Dec 2021

KSRQ 070831Z AUTO 00000KT 1/4SM FG VV002 17/17 A3005 RMK AO2 T01670167
KSRQ 070824Z AUTO 00000KT M1/4SM FG VV001 17/17 A3005 RMK AO2 T01670167
KSRQ 070753Z AUTO 00000KT 1/4SM FG VV002 16/16 A3005 RMK AO2 SLP176 T01610161
KSRQ 070737Z AUTO 00000KT 1/2SM FG VV001 16/16 A3005 RMK AO2 T01610161
KSRQ 070653Z AUTO 00000KT 1/4SM FG VV001 16/16 A3005 RMK AO2 SLP175 T01610161
KSRQ 070553Z AUTO 14004KT 1/4SM FG VV001 16/16 A3005 RMK AO2 SLP176 T01610161 10206 20161 58016
KSRQ 070507Z AUTO 00000KT 1/4SM FG VV001 17/17 A3008 RMK AO2 T01670167
KSRQ 070458Z AUTO 00000KT 3/4SM BR VV002 17/17 A3008 RMK AO2 VIS M1/4V5 T01670167
KSRQ 070453Z AUTO 00000KT 5SM BR OVC002 17/17 A3008 RMK AO2 SLP187 T01670167 402500150
KSRQ 070446Z AUTO 00000KT 9SM OVC002 17/17 A3009 RMK AO2 T01720172 TSNO
KSRQ 070439Z AUTO 00000KT 2SM BR BKN002 17/17 A3009 RMK AO2 T01720167 TSNO
KSRQ 070430Z 00000KT 1/2SM FG VV003 17/17 A3009 RMK AO2 T01670167
KSRQ 070423Z 00000KT 1SM BR VV002 17/17 A3010 RMK AO2 VIS 1/4V4 T01670167
KSRQ 070416Z 00000KT 2 1/2SM BR FEW002 17/17 A3010 RMK AO2 VIS 1 1/2V4 T01670167
KSRQ 070353Z 00000KT 8SM CLR 18/18 A3010 RMK AO2 SLP192 T01780178
KSRQ 070253Z 00000KT 4SM BR CLR 18/17 A3010 RMK AO2 SLP191 T01780172 51009
KSRQ 070153Z 00000KT 10SM CLR 19/18 A3010 RMK AO2 SLP191 T01890183
KSRQ 070053Z 00000KT 10SM CLR 20/19 A3009 RMK AO2 SLP190 T02000189
KSRQ 062353Z 29005KT 10SM CLR 21/19 A3007 RMK AO2 SLP182 T02060189 10244 20200 53013
KSRQ 062253Z 32003KT 10SM CLR 21/18 A3005 RMK AO2 SLP175 T02060183
KSRQ 062153Z 29004KT 10SM CLR 22/19 A3004 RMK AO2 SLP171 T02170189
KSRQ 062053Z 25005KT 10SM CLR 23/19 A3003 RMK AO2 SLP169 T02330189 58012
KSRQ 061953Z 23005KT 10SM CLR 24/19 A3004 RMK AO2 SLP172 T02390189
KSRQ 061853Z 22007KT 10SM CLR 24/19 A3006 RMK AO2 SLP178 T02390189
KSRQ 061753Z 22006KT 10SM CLR 24/19 A3007 RMK AO2 SLP180 T02440189 10250 20172 58025
KSRQ 061653Z 24006KT 10SM CLR 24/20 A3009 RMK AO2 SLP190 T02390200
KSRQ 061553Z VRB03KT 10SM CLR 24/21 A3012 RMK AO2 SLP199 T02440206
KSRQ 061453Z 00000KT 10SM SCT002 21/20 A3014 RMK AO2 SLP205 T02060200 53008
KSRQ 061432Z 00000KT 3SM BR OVC002 19/19 A3014 RMK AO2 T01940194
KSRQ 061418Z 00000KT 1SM BR VV002 19/19 A3013 RMK AO2 T01890189
KSRQ 061406Z 10004KT 1/4SM FG VV002 18/18 A3013 RMK AO2 T01830183
KSRQ 061353Z 10003KT M1/4SM FG VV002 18/18 A3012 RMK AO2 SLP199 T01830183
KSRQ 061318Z 12003KT 1/4SM FG VV002 18/18 A3012 RMK AO2 T01780178
KSRQ 061253Z 12005KT M1/4SM FG VV002 18/18 A3012 RMK AO2 SLP197 T01780178
KSRQ 061244Z 12006KT 1/4SM FG VV002 18/17 A3011 RMK AO2 T01780172
KSRQ 061220Z 11004KT M1/4SM FG VV002 18/18 A3011 RMK AO2 T01780178
KSRQ 061153Z 11004KT 1/4SM FG VV002 17/17 A3010 RMK AO2 SLP192 T01720172 10178 20150 51007
KSRQ 061101Z 09003KT 1/4SM FG VV002 17/17 A3009 RMK AO2 T01670167
KSRQ 061053Z 00000KT 1/2SM FG VV003 17/17 A3009 RMK AO2 SLP189 T01670167
KSRQ 061045Z AUTO 00000KT 1/4SM FG VV003 16/16 A3009 RMK AO2 T01610161
KSRQ 061033Z AUTO 00000KT 3/4SM BR VV003 16/16 A3008 RMK AO2 T01560156
KSRQ 061029Z AUTO 00000KT 2 1/2SM BR BKN003 16/16 A3008 RMK AO2 T01610161
KSRQ 061026Z AUTO 00000KT 3SM BR SCT003 16/16 A3008 RMK AO2 T01610161
KSRQ 060955Z AUTO 10003KT 3SM BR CLR 16/16 A3008 RMK AO2 T01610156
KSRQ 060953Z AUTO 10003KT 1 1/2SM BR CLR 16/16 A3008 RMK AO2 SLP185 T01610156
KSRQ 060949Z AUTO 10003KT 3/4SM BR CLR 16/16 A3008 RMK AO2
KSRQ 060940Z AUTO 00000KT 1 3/4SM BR CLR 16/16 A3008 RMK AO2 T01560156
KSRQ 060853Z AUTO 07003KT 9SM CLR 17/16 A3009 RMK AO2 SLP187 T01670161 55008
KSRQ 060753Z AUTO 07003KT 10SM CLR 17/17 A3008 RMK AO2 SLP187 T01720167
KSRQ 060653Z AUTO 07003KT 10SM BKN055 17/16 A3010 RMK AO2 SLP191 T01720161
KSRQ 060553Z AUTO 07003KT 10SM BKN055 18/16 A3011 RMK AO2 SLP195 T01780161 10206 20167 58006
KSRQ 060453Z 00000KT 10SM CLR 18/16 A3012 RMK AO2 SLP198 T01780161 402610144
KSRQ 060353Z 00000KT 10SM CLR 18/16 A3013 RMK AO2 SLP201 T01830161
KSRQ 060253Z 06003KT 10SM BKN060 18/16 A3013 RMK AO2 SLP201 T01830156 51015
KSRQ 060153Z 06004KT 10SM FEW038 SCT060 19/16 A3012 RMK AO2 SLP197 T01940161
KSRQ 060053Z 04004KT 10SM BKN044 20/17 A3010 RMK AO2 SLP191 T02000167
KSRQ 052353Z 35003KT 10SM CLR 21/16 A3008 RMK AO2 SLP186 T02060161 10261 20200 53005
KSRQ 052253Z 34003KT 10SM CLR 22/16 A3007 RMK AO2 SLP183 T02170156
KSRQ 052153Z 30005KT 10SM CLR 24/16 A3007 RMK AO2 SLP181 T02440161
KSRQ 052053Z AUTO 29007KT 10SM CLR 25/14 A3007 RMK AO2 SLP181 T02500144 56013